Time;durP1;ratioP1;P1;durP2;ratioP2;P2;SDS_P1;SDS_P2;PMS_P1;PMS_P2;Temp;Humidity;BMP_temperature;BMP_pressure;BME280_temperature;BME280_humidity;BME280_pressure;Samples;Min_cycle;Max_cycle;Signal;HPM_P1;HPM_P2
2024/03/09 00:02:20;;;;;;;10.10;7.63;;;16.30;84.00;;;;;;5052897;28;20578;-44
2024/03/09 00:04:46;;;;;;;11.40;7.03;;;16.30;84.00;;;;;;5052997;28;20438;-44
2024/03/09 00:07:12;;;;;;;11.13;7.25;;;16.30;84.10;;;;;;5052873;28;20534;-43
2024/03/09 00:09:37;;;;;;;10.68;7.38;;;16.30;84.10;;;;;;5051535;28;20021;-42
2024/03/09 00:12:04;;;;;;;9.35;6.55;;;16.30;84.10;;;;;;5054230;28;20028;-40
2024/03/09 00:14:30;;;;;;;9.98;6.82;;;16.20;84.10;;;;;;5051195;28;20112;-43
2024/03/09 00:16:56;;;;;;;9.80;6.50;;;16.20;84.80;;;;;;5051817;28;20551;-44
2024/03/09 00:19:22;;;;;;;9.93;7.00;;;16.20;84.10;;;;;;5051595;28;20462;-43
2024/03/09 00:21:48;;;;;;;9.98;6.80;;;16.20;84.10;;;;;;5052818;28;20031;-40
2024/03/09 00:24:14;;;;;;;9.93;7.43;;;16.20;84.00;;;;;;5051645;28;20144;-40
2024/03/09 00:26:40;;;;;;;10.40;7.15;;;16.20;84.10;;;;;;5052437;28;20029;-44
2024/03/09 00:29:06;;;;;;;9.52;7.15;;;16.20;84.10;;;;;;5052189;28;20036;-43
2024/03/09 00:31:33;;;;;;;10.52;7.35;;;16.20;84.10;;;;;;5052626;28;20029;-44
2024/03/09 00:33:59;;;;;;;9.20;7.00;;;16.20;84.10;;;;;;5051139;28;20017;-44
2024/03/09 00:36:24;;;;;;;10.45;6.85;;;16.20;84.10;;;;;;5051345;28;20036;-43
2024/03/09 00:38:50;;;;;;;9.35;6.25;;;16.20;84.10;;;;;;5052789;28;20483;-42
2024/03/09 00:41:16;;;;;;;9.02;6.53;;;16.20;84.10;;;;;;5052363;28;20116;-43
2024/03/09 00:43:43;;;;;;;9.30;6.35;;;16.20;84.10;;;;;;5052550;28;20009;-44
2024/03/09 00:46:11;;;;;;;10.52;7.32;;;16.20;84.10;;;;;;5052127;28;20033;-44
2024/03/09 00:48:36;;;;;;;11.50;7.10;;;16.20;84.10;;;;;;5051507;28;20045;-40
2024/03/09 00:51:02;;;;;;;8.25;6.35;;;16.20;84.10;;;;;;5051703;28;20451;-44
2024/03/09 00:53:28;;;;;;;7.85;6.40;;;16.20;84.10;;;;;;5051666;28;20028;-43
2024/03/09 00:55:53;;;;;;;12.55;7.35;;;16.20;84.10;;;;;;5050717;28;20032;-43
2024/03/09 00:58:21;;;;;;;9.70;6.80;;;16.20;84.10;;;;;;5051560;28;20533;-43
2024/03/09 01:00:48;;;;;;;7.60;6.03;;;16.20;84.20;;;;;;5051592;28;20029;-43
2024/03/09 01:03:14;;;;;;;8.18;6.50;;;16.20;84.20;;;;;;5052168;28;20025;-43
2024/03/09 01:05:44;;;;;;;11.15;6.43;;;16.20;85.00;;;;;;5050694;28;20033;-43
2024/03/09 01:08:13;;;;;;;9.32;6.45;;;16.20;84.30;;;;;;5051601;28;20017;-43
2024/03/09 01:10:39;;;;;;;9.18;6.47;;;16.20;84.40;;;;;;5051376;28;20013;-44
2024/03/09 01:13:05;;;;;;;8.50;6.43;;;16.10;84.30;;;;;;5053517;28;20484;-44
2024/03/09 01:15:31;;;;;;;9.20;6.40;;;16.10;84.40;;;;;;5051532;28;20036;-44
2024/03/09 01:17:57;;;;;;;9.43;6.80;;;16.10;84.40;;;;;;5052019;28;20100;-41
2024/03/09 01:20:22;;;;;;;8.32;5.78;;;16.10;84.40;;;;;;5051824;28;20041;-44
2024/03/09 01:22:49;;;;;;;8.18;6.50;;;16.10;84.40;;;;;;5052051;28;20462;-44
2024/03/09 01:25:14;;;;;;;9.05;5.97;;;16.10;84.40;;;;;;5051281;28;20021;-43
2024/03/09 01:27:40;;;;;;;7.85;6.13;;;16.10;84.40;;;;;;5050859;28;20390;-43
2024/03/09 01:30:06;;;;;;;7.88;6.43;;;16.10;84.40;;;;;;5050868;28;20432;-43
2024/03/09 01:32:32;;;;;;;9.23;6.68;;;16.10;84.40;;;;;;5050330;28;20463;-41
2024/03/09 01:34:58;;;;;;;9.43;6.65;;;16.10;84.50;;;;;;5055515;28;20069;-43
2024/03/09 01:37:24;;;;;;;8.00;5.60;;;16.10;84.50;;;;;;5054525;28;20031;-44
2024/03/09 01:39:50;;;;;;;8.15;6.00;;;16.10;84.50;;;;;;5054868;28;20521;-41
2024/03/09 01:42:19;;;;;;;9.65;6.75;;;16.10;84.50;;;;;;5054939;28;20035;-43
2024/03/09 01:44:48;;;;;;;8.48;6.30;;;16.10;84.50;;;;;;5055875;28;20028;-43
2024/03/09 01:47:15;;;;;;;9.23;6.50;;;16.10;84.60;;;;;;5055472;28;20501;-43
2024/03/09 01:49:41;;;;;;;12.98;8.57;;;16.10;84.60;;;;;;5054692;28;20017;-44
2024/03/09 01:52:12;;;;;;;11.90;8.75;;;16.00;84.50;;;;;;5054806;28;20039;-41
2024/03/09 01:54:40;;;;;;;10.50;7.78;;;16.10;84.60;;;;;;5055398;28;20043;-44
2024/03/09 01:57:07;;;;;;;11.13;7.45;;;16.10;84.70;;;;;;5054917;28;20537;-43
2024/03/09 01:59:33;;;;;;;9.73;7.03;;;16.00;84.60;;;;;;5054314;28;20036;-44
2024/03/09 02:02:01;;;;;;;9.57;6.70;;;16.10;84.70;;;;;;5055111;28;20025;-44
2024/03/09 02:04:30;;;;;;;11.07;7.18;;;16.10;84.70;;;;;;5054111;28;20029;-44
2024/03/09 02:06:56;;;;;;;12.15;7.20;;;16.00;84.60;;;;;;5054523;28;20077;-45
2024/03/09 02:09:25;;;;;;;9.20;6.78;;;16.10;84.60;;;;;;5053332;28;20043;-44
2024/03/09 02:11:51;;;;;;;9.45;6.53;;;16.10;84.60;;;;;;5053252;28;20115;-44
2024/03/09 02:14:17;;;;;;;9.95;6.75;;;16.10;84.70;;;;;;5053860;28;20029;-44
2024/03/09 02:16:42;;;;;;;9.75;7.22;;;16.10;84.60;;;;;;5053786;28;20032;-43
2024/03/09 02:19:13;;;;;;;9.35;6.72;;;16.10;84.60;;;;;;5053142;28;20029;-43
2024/03/09 02:21:40;;;;;;;9.38;6.35;;;16.10;84.70;;;;;;5052240;28;20032;-43
2024/03/09 02:24:08;;;;;;;8.02;6.50;;;16.10;84.60;;;;;;5054687;28;20021;-41
2024/03/09 02:26:37;;;;;;;10.27;6.50;;;16.10;84.60;;;;;;5054341;28;20019;-43
2024/03/09 02:29:04;;;;;;;8.80;6.90;;;16.00;84.60;;;;;;5053064;28;20388;-44
2024/03/09 02:31:30;;;;;;;8.70;6.20;;;16.10;84.70;;;;;;5053647;28;20511;-42
2024/03/09 02:33:56;;;;;;;8.90;6.57;;;16.00;84.70;;;;;;5053120;28;20117;-44
2024/03/09 02:36:32;;;;;;;8.85;6.65;;;16.00;84.70;;;;;;5052963;28;20032;-41
2024/03/09 02:38:59;;;;;;;9.80;6.30;;;16.00;84.70;;;;;;5054474;28;20021;-43
2024/03/09 02:41:26;;;;;;;8.48;6.15;;;16.00;84.80;;;;;;5053150;28;20104;-44
2024/03/09 02:43:55;;;;;;;9.00;6.65;;;16.00;84.70;;;;;;5053053;28;20035;-42
2024/03/09 02:46:25;;;;;;;8.25;6.18;;;16.00;84.80;;;;;;5051841;28;20028;-42
2024/03/09 02:48:53;;;;;;;8.38;6.00;;;16.00;84.80;;;;;;5052479;28;20100;-42
2024/03/09 02:51:19;;;;;;;9.13;6.85;;;16.00;84.80;;;;;;5052456;28;20442;-43
2024/03/09 02:53:45;;;;;;;9.23;6.20;;;16.00;84.90;;;;;;5052627;28;20104;-42
2024/03/09 02:56:11;;;;;;;9.60;6.15;;;16.00;84.90;;;;;;5052682;28;20040;-44
2024/03/09 02:58:38;;;;;;;9.68;6.40;;;16.00;84.90;;;;;;5052229;28;20295;-43
2024/03/09 03:01:07;;;;;;;7.53;5.78;;;16.00;84.90;;;;;;5053128;28;20056;-44
2024/03/09 03:03:46;;;;;;;8.93;6.05;;;16.00;84.90;;;;;;5053555;28;20040;-44
2024/03/09 03:06:21;;;;;;;7.90;5.80;;;16.00;85.10;;;;;;5053192;28;20031;-45
2024/03/09 03:08:52;;;;;;;8.40;6.03;;;16.00;85.10;;;;;;5052651;28;20103;-45
2024/03/09 03:11:20;;;;;;;8.00;6.18;;;16.00;85.20;;;;;;5052237;28;20017;-45
2024/03/09 03:13:48;;;;;;;8.63;6.15;;;16.00;85.20;;;;;;5053246;28;20028;-43
2024/03/09 03:16:26;;;;;;;8.13;6.03;;;16.00;85.30;;;;;;5053661;28;20035;-44
2024/03/09 03:18:55;;;;;;;7.32;5.50;;;16.00;85.30;;;;;;5052949;28;20025;-45
2024/03/09 03:21:21;;;;;;;7.25;5.93;;;16.00;85.40;;;;;;5053894;28;20506;-45
2024/03/09 03:23:49;;;;;;;8.10;6.32;;;15.90;85.40;;;;;;5051953;28;20029;-45
2024/03/09 03:26:16;;;;;;;8.80;6.05;;;16.00;85.40;;;;;;5053475;28;20514;-44
2024/03/09 03:28:47;;;;;;;8.82;5.97;;;16.00;85.40;;;;;;5053479;28;20487;-43
2024/03/09 03:31:16;;;;;;;8.77;6.03;;;16.00;85.40;;;;;;5051693;28;20044;-42
2024/03/09 03:33:42;;;;;;;8.30;5.90;;;15.90;85.40;;;;;;5052157;28;20017;-44
2024/03/09 03:36:09;;;;;;;8.02;5.85;;;16.00;85.40;;;;;;5052247;28;20589;-44
2024/03/09 03:38:35;;;;;;;7.55;5.18;;;16.00;85.40;;;;;;5052385;28;20114;-44
2024/03/09 03:41:10;;;;;;;7.00;5.68;;;16.00;85.40;;;;;;5053335;28;20392;-43
2024/03/09 03:43:40;;;;;;;8.68;5.70;;;16.00;85.50;;;;;;5052716;28;20037;-44
2024/03/09 03:46:11;;;;;;;7.97;5.93;;;16.00;85.50;;;;;;5051206;28;20393;-43
2024/03/09 03:48:37;;;;;;;6.50;4.82;;;16.00;85.50;;;;;;5052257;28;20024;-43
2024/03/09 03:51:04;;;;;;;7.10;5.20;;;16.00;85.50;;;;;;5052131;28;20013;-43
2024/03/09 03:53:30;;;;;;;8.35;5.80;;;15.90;85.50;;;;;;5051628;28;20033;-43
2024/03/09 03:55:57;;;;;;;7.13;5.50;;;16.00;85.50;;;;;;5050908;28;20094;-44
2024/03/09 03:58:23;;;;;;;9.02;5.60;;;16.00;85.60;;;;;;5051401;28;20032;-44
2024/03/09 04:00:49;;;;;;;7.15;5.25;;;16.00;85.70;;;;;;5052920;28;20422;-43
2024/03/09 04:03:20;;;;;;;6.45;4.97;;;16.00;85.70;;;;;;5052006;28;20029;-42
2024/03/09 04:05:48;;;;;;;6.72;4.97;;;15.90;85.70;;;;;;5052812;28;20053;-42
2024/03/09 04:08:15;;;;;;;7.28;5.32;;;16.00;85.70;;;;;;5051474;28;20029;-41
2024/03/09 04:10:43;;;;;;;7.25;5.60;;;16.00;85.80;;;;;;5051652;28;20020;-43
2024/03/09 04:13:15;;;;;;;8.38;5.50;;;16.00;85.80;;;;;;5053071;28;20017;-43
2024/03/09 04:15:44;;;;;;;6.88;5.10;;;15.90;85.70;;;;;;5052186;28;20025;-43
2024/03/09 04:18:13;;;;;;;7.03;4.90;;;16.00;85.70;;;;;;5051119;28;20495;-43
2024/03/09 04:20:40;;;;;;;6.82;5.30;;;16.00;85.70;;;;;;5050556;28;20029;-43
2024/03/09 04:23:09;;;;;;;6.65;5.20;;;15.90;85.70;;;;;;5051107;28;20025;-45
2024/03/09 04:25:38;;;;;;;8.07;5.22;;;15.90;85.70;;;;;;5051335;28;20021;-44
2024/03/09 04:28:10;;;;;;;7.15;5.18;;;15.90;85.70;;;;;;5050777;28;20033;-43
2024/03/09 04:30:37;;;;;;;6.82;5.43;;;15.80;85.70;;;;;;5051223;28;20036;-45
2024/03/09 04:33:04;;;;;;;6.68;5.15;;;15.80;85.80;;;;;;5051719;28;20014;-45
2024/03/09 04:35:31;;;;;;;6.40;4.88;;;15.70;85.90;;;;;;5050926;28;20044;-43
2024/03/09 04:37:57;;;;;;;7.40;5.18;;;15.60;86.00;;;;;;5050679;28;20078;-43
2024/03/09 04:40:23;;;;;;;7.22;5.35;;;15.60;86.20;;;;;;5050633;28;20029;-45
2024/03/09 04:42:49;;;;;;;11.30;5.35;;;15.50;86.40;;;;;;5051119;28;20021;-44
2024/03/09 04:45:19;;;;;;;8.48;5.38;;;15.40;86.50;;;;;;5050263;28;20029;-45
2024/03/09 04:47:45;;;;;;;7.80;5.28;;;15.30;86.80;;;;;;5050436;28;20032;-44
2024/03/09 04:50:12;;;;;;;7.28;5.32;;;15.30;87.00;;;;;;5051832;28;20025;-45
2024/03/09 04:52:38;;;;;;;6.97;5.28;;;15.20;87.20;;;;;;5050710;28;20052;-44
2024/03/09 04:55:05;;;;;;;6.10;4.55;;;15.00;87.40;;;;;;5049297;28;20053;-45
2024/03/09 04:57:38;;;;;;;6.50;4.72;;;15.00;87.80;;;;;;5050383;28;20159;-45
2024/03/09 05:00:06;;;;;;;6.28;4.78;;;14.90;88.00;;;;;;5051431;28;20033;-45
2024/03/09 05:02:32;;;;;;;6.38;5.20;;;14.80;88.20;;;;;;5051390;28;20502;-45
2024/03/09 05:04:58;;;;;;;5.97;4.93;;;14.70;88.40;;;;;;5050965;28;20021;-44
2024/03/09 05:07:24;;;;;;;6.40;4.68;;;14.60;88.70;;;;;;5051010;28;20424;-44
2024/03/09 05:09:49;;;;;;;6.53;4.32;;;14.50;88.90;;;;;;5053714;28;20049;-45
2024/03/09 05:12:15;;;;;;;6.43;4.85;;;14.50;89.10;;;;;;5055526;28;20033;-44
2024/03/09 05:14:40;;;;;;;7.22;5.22;;;14.40;89.40;;;;;;5055709;28;20036;-44
2024/03/09 05:17:06;;;;;;;7.10;4.43;;;14.30;89.60;;;;;;5054021;28;20071;-43
2024/03/09 05:19:32;;;;;;;5.68;4.15;;;14.20;89.80;;;;;;5053914;28;20025;-44
2024/03/09 05:21:59;;;;;;;7.95;5.05;;;14.10;90.00;;;;;;5054472;28;20025;-44
2024/03/09 05:24:25;;;;;;;7.22;5.20;;;14.00;90.00;;;;;;5055832;28;20228;-43
2024/03/09 05:26:51;;;;;;;8.13;5.28;;;14.00;90.10;;;;;;5055510;28;20036;-44
2024/03/09 05:29:16;;;;;;;6.90;4.63;;;13.90;90.20;;;;;;5054747;28;20127;-45
2024/03/09 05:31:42;;;;;;;6.75;4.75;;;13.80;90.30;;;;;;5054312;28;20021;-45
2024/03/09 05:34:07;;;;;;;6.47;4.65;;;13.80;90.40;;;;;;5055673;28;20033;-44
2024/03/09 05:36:35;;;;;;;6.57;4.97;;;13.70;90.50;;;;;;5053911;28;20057;-45
2024/03/09 05:39:01;;;;;;;7.20;5.00;;;13.70;90.60;;;;;;5053588;28;20020;-42
2024/03/09 05:41:26;;;;;;;7.30;5.15;;;13.60;90.70;;;;;;5053547;28;20031;-43
2024/03/09 05:43:52;;;;;;;7.55;5.28;;;13.50;90.80;;;;;;5054653;28;20057;-45
2024/03/09 05:46:18;;;;;;;6.78;4.75;;;13.50;90.90;;;;;;5054321;28;20029;-44
2024/03/09 05:48:47;;;;;;;6.05;4.72;;;13.40;91.00;;;;;;5053523;28;20027;-44
2024/03/09 05:51:18;;;;;;;7.28;5.07;;;13.40;91.10;;;;;;5054385;28;20033;-45
2024/03/09 05:53:44;;;;;;;6.50;4.72;;;13.30;91.20;;;;;;5054299;28;20071;-45
2024/03/09 05:56:12;;;;;;;6.85;4.88;;;13.20;91.20;;;;;;5053374;28;20025;-45
2024/03/09 05:58:39;;;;;;;6.20;4.65;;;13.20;91.30;;;;;;5053965;28;20028;-42
2024/03/09 06:01:04;;;;;;;8.40;4.90;;;13.20;91.40;;;;;;5053269;28;20028;-45
2024/03/09 06:03:30;;;;;;;7.25;5.20;;;13.10;91.50;;;;;;5054381;28;20020;-45
2024/03/09 06:05:56;;;;;;;7.30;5.30;;;13.10;91.50;;;;;;5054171;28;20108;-45
2024/03/09 06:08:22;;;;;;;6.82;5.18;;;13.10;91.60;;;;;;5052918;28;20048;-45
2024/03/09 06:10:49;;;;;;;7.28;5.25;;;13.00;91.70;;;;;;5053321;28;20033;-45
2024/03/09 06:13:18;;;;;;;8.00;5.25;;;13.10;91.80;;;;;;5053148;28;20017;-45
2024/03/09 06:15:47;;;;;;;7.53;4.90;;;13.00;91.80;;;;;;5054173;28;20033;-43
2024/03/09 06:18:16;;;;;;;7.63;5.47;;;13.00;91.80;;;;;;5053251;28;20079;-45
2024/03/09 06:20:51;;;;;;;6.80;5.63;;;13.00;91.90;;;;;;5053363;28;20021;-45
2024/03/09 06:23:17;;;;;;;6.13;4.85;;;13.10;91.90;;;;;;5054073;28;20025;-41
2024/03/09 06:25:42;;;;;;;7.35;5.00;;;13.10;91.90;;;;;;5054293;28;20487;-44
2024/03/09 06:28:14;;;;;;;7.13;4.95;;;13.10;91.90;;;;;;5053367;28;20033;-45
2024/03/09 06:30:41;;;;;;;6.80;5.10;;;13.10;91.90;;;;;;5053580;28;20506;-44
2024/03/09 06:33:09;;;;;;;7.20;5.20;;;13.20;91.90;;;;;;5053803;28;20542;-44
2024/03/09 06:35:35;;;;;;;6.82;5.07;;;13.20;91.90;;;;;;5054469;28;20049;-44
2024/03/09 06:38:05;;;;;;;7.28;5.25;;;13.20;91.80;;;;;;5054219;28;20031;-43
2024/03/09 06:40:33;;;;;;;6.38;5.07;;;13.30;91.80;;;;;;5053303;28;20017;-42
2024/03/09 06:43:03;;;;;;;6.93;4.93;;;13.30;91.80;;;;;;5052682;28;20014;-45
2024/03/09 06:45:29;;;;;;;6.45;4.70;;;13.40;91.80;;;;;;5053237;28;20414;-44
2024/03/09 06:47:57;;;;;;;8.00;5.35;;;13.40;91.70;;;;;;5054006;28;20032;-45
2024/03/09 06:50:23;;;;;;;6.75;4.97;;;13.50;91.70;;;;;;5053638;28;20036;-44
2024/03/09 06:52:51;;;;;;;7.85;5.30;;;13.50;91.60;;;;;;5053947;28;20047;-41
2024/03/09 06:55:18;;;;;;;6.65;4.90;;;13.60;91.60;;;;;;5053337;28;20025;-43
2024/03/09 06:57:46;;;;;;;6.13;4.35;;;13.60;91.50;;;;;;5053369;28;20021;-44
2024/03/09 07:00:15;;;;;;;5.85;4.57;;;13.70;91.50;;;;;;5053628;28;20116;-44
2024/03/09 07:02:44;;;;;;;6.20;4.57;;;13.80;91.50;;;;;;5053737;28;20029;-45
2024/03/09 07:05:10;;;;;;;6.13;4.78;;;13.80;91.40;;;;;;5053407;28;20052;-44
2024/03/09 07:07:37;;;;;;;6.22;4.60;;;13.90;91.30;;;;;;5052684;28;20052;-44
2024/03/09 07:10:09;;;;;;;6.10;4.78;;;13.90;91.30;;;;;;5051802;28;20479;-45
2024/03/09 07:12:42;;;;;;;7.35;4.55;;;14.00;91.20;;;;;;5052082;28;20029;-43
2024/03/09 07:15:15;;;;;;;6.65;4.63;;;14.10;91.20;;;;;;5051677;28;20491;-45
2024/03/09 07:17:44;;;;;;;6.05;4.40;;;14.10;91.10;;;;;;5052351;28;20080;-44
2024/03/09 07:20:16;;;;;;;5.88;4.10;;;14.20;91.10;;;;;;5051244;28;20064;-45
2024/03/09 07:22:49;;;;;;;6.22;4.53;;;14.20;91.00;;;;;;5052201;28;20025;-42
2024/03/09 07:25:23;;;;;;;5.70;4.23;;;14.30;90.90;;;;;;5052498;28;20025;-45
2024/03/09 07:27:49;;;;;;;5.50;4.07;;;14.30;90.90;;;;;;5053181;28;20582;-43
2024/03/09 07:30:15;;;;;;;5.95;4.13;;;14.40;90.80;;;;;;5053525;28;20029;-42
2024/03/09 07:32:48;;;;;;;4.47;3.78;;;14.50;90.80;;;;;;5051437;28;20028;-45
2024/03/09 07:35:15;;;;;;;4.70;3.83;;;14.50;90.70;;;;;;5052727;28;20032;-44
2024/03/09 07:37:44;;;;;;;4.88;3.72;;;14.60;90.70;;;;;;5053781;28;20029;-45
2024/03/09 07:40:14;;;;;;;5.28;4.03;;;14.60;90.60;;;;;;5051681;28;20484;-44
2024/03/09 07:42:41;;;;;;;6.28;4.10;;;14.70;90.50;;;;;;5051853;28;20135;-44
2024/03/09 07:45:10;;;;;;;6.13;3.60;;;14.80;90.50;;;;;;5051290;28;20120;-43
2024/03/09 07:47:38;;;;;;;5.22;3.40;;;14.90;90.50;;;;;;5051065;28;20021;-45
2024/03/09 07:50:07;;;;;;;9.32;6.57;;;14.90;90.40;;;;;;5051109;28;20024;-45
2024/03/09 07:52:32;;;;;;;9.88;6.90;;;15.00;90.20;;;;;;5051289;28;20025;-43
2024/03/09 07:54:58;;;;;;;8.98;7.13;;;15.00;90.10;;;;;;5052683;28;20025;-44
2024/03/09 07:57:24;;;;;;;9.50;6.72;;;15.10;90.10;;;;;;5051397;28;20545;-44
2024/03/09 07:59:49;;;;;;;9.52;6.88;;;15.20;90.10;;;;;;5051100;28;20104;-45
2024/03/09 08:02:15;;;;;;;9.38;7.15;;;15.20;90.00;;;;;;5051442;28;20048;-45
2024/03/09 08:04:41;;;;;;;10.30;7.00;;;15.30;90.10;;;;;;5051234;28;20071;-45
2024/03/09 08:07:07;;;;;;;9.68;6.72;;;15.40;90.00;;;;;;5051223;28;20082;-45
2024/03/09 08:09:32;;;;;;;9.70;6.90;;;15.50;90.00;;;;;;5051061;28;20426;-45
2024/03/09 08:11:58;;;;;;;8.50;6.30;;;15.50;89.90;;;;;;5051593;28;20029;-45
2024/03/09 08:14:27;;;;;;;7.72;5.88;;;15.50;89.70;;;;;;5051638;28;20021;-45
2024/03/09 08:16:55;;;;;;;8.77;6.28;;;15.60;89.70;;;;;;5052393;28;20048;-43
2024/03/09 08:19:21;;;;;;;10.70;6.53;;;15.70;89.60;;;;;;5051767;28;20025;-42
2024/03/09 08:21:47;;;;;;;7.82;6.10;;;15.80;89.50;;;;;;5052582;28;20094;-45
2024/03/09 08:24:14;;;;;;;8.70;5.97;;;15.80;89.30;;;;;;5052391;28;20458;-45
2024/03/09 08:26:40;;;;;;;7.22;5.53;;;15.90;89.30;;;;;;5051938;28;20032;-45
2024/03/09 08:29:06;;;;;;;8.00;6.05;;;16.00;89.10;;;;;;5051079;28;20171;-45
2024/03/09 08:31:31;;;;;;;6.97;5.43;;;16.00;88.90;;;;;;5050972;28;20100;-45
2024/03/09 08:33:57;;;;;;;7.85;5.65;;;16.10;88.90;;;;;;5052808;28;20104;-45
2024/03/09 08:36:23;;;;;;;7.82;5.70;;;16.20;88.80;;;;;;5051976;28;20490;-45
2024/03/09 08:38:52;;;;;;;6.88;5.22;;;16.20;88.70;;;;;;5052564;28;20032;-41
2024/03/09 08:41:18;;;;;;;6.97;5.60;;;16.30;88.60;;;;;;5052323;28;20021;-43
2024/03/09 08:43:45;;;;;;;6.85;4.65;;;16.40;88.50;;;;;;5054018;28;20025;-43
2024/03/09 08:46:12;;;;;;;6.90;5.40;;;16.50;88.40;;;;;;5055095;28;20056;-44
2024/03/09 08:48:38;;;;;;;7.28;5.28;;;16.50;88.30;;;;;;5054983;28;20021;-43
2024/03/09 08:51:04;;;;;;;6.65;5.05;;;16.60;88.20;;;;;;5054579;28;20025;-44
2024/03/09 08:53:30;;;;;;;6.60;4.50;;;16.70;88.10;;;;;;5055639;28;20386;-44
2024/03/09 08:55:56;;;;;;;6.22;4.35;;;16.70;88.00;;;;;;5054565;28;20386;-44
2024/03/09 08:58:22;;;;;;;6.00;4.53;;;16.80;87.90;;;;;;5054352;28;20021;-44
2024/03/09 09:00:48;;;;;;;6.13;4.88;;;16.90;87.70;;;;;;5054378;28;20025;-44
2024/03/09 09:03:15;;;;;;;6.82;4.90;;;17.00;87.60;;;;;;5054523;28;20064;-44
2024/03/09 09:05:41;;;;;;;8.80;4.95;;;17.10;87.50;;;;;;5054537;28;20479;-44
2024/03/09 09:08:16;;;;;;;6.78;4.90;;;17.10;87.30;;;;;;5053796;28;20024;-44
2024/03/09 09:10:43;;;;;;;5.22;4.32;;;17.20;87.20;;;;;;5054882;28;20021;-44
2024/03/09 09:13:08;;;;;;;5.55;4.05;;;17.30;87.00;;;;;;5055737;28;20029;-42
2024/03/09 09:15:34;;;;;;;6.28;4.32;;;17.30;86.90;;;;;;5055369;28;20031;-44
2024/03/09 09:18:00;;;;;;;6.05;4.63;;;17.40;86.70;;;;;;5056661;28;20029;-44
2024/03/09 09:20:27;;;;;;;7.57;4.47;;;17.50;86.80;;;;;;5055479;28;20024;-42
2024/03/09 09:22:53;;;;;;;6.63;4.80;;;17.60;86.30;;;;;;5057041;28;20375;-43
2024/03/09 09:25:23;;;;;;;6.07;4.50;;;17.60;86.00;;;;;;5056200;28;20089;-43
2024/03/09 09:27:49;;;;;;;6.93;4.95;;;17.70;85.80;;;;;;5053704;28;20539;-44
2024/03/09 09:30:14;;;;;;;6.00;4.60;;;17.80;85.60;;;;;;5053879;28;20029;-45
2024/03/09 09:32:41;;;;;;;6.40;4.78;;;17.90;85.40;;;;;;5054185;28;20024;-42
2024/03/09 09:35:07;;;;;;;7.57;4.55;;;17.90;86.00;;;;;;5053802;28;20108;-41
2024/03/09 09:37:33;;;;;;;7.15;4.80;;;18.00;85.10;;;;;;5053787;28;20028;-42
2024/03/09 09:40:00;;;;;;;6.53;4.90;;;18.10;85.00;;;;;;5054349;28;20032;-44
2024/03/09 09:42:30;;;;;;;5.75;4.10;;;18.20;84.80;;;;;;5054316;28;20029;-44
2024/03/09 09:44:57;;;;;;;7.55;4.65;;;18.30;84.60;;;;;;5055342;28;20067;-43
2024/03/09 09:47:29;;;;;;;5.90;4.40;;;18.30;84.40;;;;;;5054328;28;20025;-44
2024/03/09 09:49:56;;;;;;;5.90;4.63;;;18.40;84.30;;;;;;5054004;28;20028;-43
2024/03/09 09:52:25;;;;;;;6.05;4.00;;;18.50;84.10;;;;;;5054013;28;20021;-44
2024/03/09 09:55:02;;;;;;;5.63;4.30;;;18.60;84.00;;;;;;5053143;28;20100;-44
2024/03/09 09:57:28;;;;;;;4.95;3.63;;;18.60;83.80;;;;;;5053781;28;20040;-44
2024/03/09 09:59:54;;;;;;;4.90;3.50;;;18.70;83.60;;;;;;5053202;28;20017;-44
2024/03/09 10:02:24;;;;;;;4.35;3.78;;;18.80;83.40;;;;;;5053273;28;20036;-43
2024/03/09 10:04:50;;;;;;;5.50;3.80;;;18.90;83.30;;;;;;5053274;28;20472;-44
2024/03/09 10:07:16;;;;;;;4.45;3.55;;;18.90;83.80;;;;;;5053059;28;20090;-44
2024/03/09 10:09:41;;;;;;;7.45;4.03;;;19.00;83.00;;;;;;5053184;28;20100;-45
2024/03/09 10:12:23;;;;;;;4.75;3.58;;;19.00;82.70;;;;;;5053574;28;20021;-44
2024/03/09 10:14:56;;;;;;;4.47;3.40;;;19.10;82.50;;;;;;5053178;28;20036;-44
2024/03/09 10:17:22;;;;;;;5.13;3.45;;;19.20;82.50;;;;;;5052935;28;20025;-44
2024/03/09 10:19:51;;;;;;;4.57;3.67;;;19.20;82.30;;;;;;5052972;28;20112;-44
2024/03/09 10:22:16;;;;;;;4.25;3.33;;;19.30;82.10;;;;;;5053577;28;20090;-43
2024/03/09 10:24:56;;;;;;;4.45;3.40;;;19.40;82.00;;;;;;5052974;28;20032;-43
2024/03/09 10:27:25;;;;;;;4.38;3.15;;;19.40;82.00;;;;;;5053290;28;20105;-44
2024/03/09 10:30:10;;;;;;;3.35;2.72;;;19.50;82.20;;;;;;5054147;28;20028;-44
2024/03/09 10:32:37;;;;;;;4.10;3.00;;;19.60;81.20;;;;;;5054663;28;20021;-44
2024/03/09 10:35:06;;;;;;;4.18;2.80;;;19.70;81.00;;;;;;5053430;28;20441;-45
2024/03/09 10:37:32;;;;;;;3.50;2.45;;;19.80;80.80;;;;;;5052215;28;20021;-46
2024/03/09 10:39:58;;;;;;;3.22;2.60;;;19.90;80.70;;;;;;5053603;28;20440;-46
2024/03/09 10:42:25;;;;;;;4.07;2.60;;;19.90;80.40;;;;;;5053110;28;20107;-46
2024/03/09 10:44:52;;;;;;;3.58;2.60;;;20.00;80.20;;;;;;5053349;28;20021;-45
2024/03/09 10:47:20;;;;;;;3.42;2.38;;;20.10;80.20;;;;;;5054423;28;20025;-45
2024/03/09 10:49:52;;;;;;;3.00;2.55;;;20.20;80.10;;;;;;5053089;28;20063;-46
2024/03/09 10:52:22;;;;;;;3.33;2.28;;;20.20;79.90;;;;;;5053273;28;20490;-45
2024/03/09 10:55:05;;;;;;;2.88;2.20;;;20.30;79.70;;;;;;5054917;28;20029;-45
2024/03/09 10:57:32;;;;;;;3.63;2.60;;;20.40;79.60;;;;;;5052169;28;20022;-44
2024/03/09 10:59:59;;;;;;;2.53;1.83;;;20.40;79.50;;;;;;5052788;28;20032;-45
2024/03/09 11:02:26;;;;;;;2.55;2.15;;;20.50;79.30;;;;;;5052517;28;20110;-44
2024/03/09 11:04:53;;;;;;;3.22;2.17;;;20.60;79.10;;;;;;5052188;28;20033;-44
2024/03/09 11:07:22;;;;;;;2.40;2.00;;;20.60;78.90;;;;;;5051542;28;20075;-45
2024/03/09 11:09:49;;;;;;;2.67;2.10;;;20.70;78.80;;;;;;5052061;28;20096;-44
2024/03/09 11:12:16;;;;;;;2.38;1.95;;;20.80;78.70;;;;;;5052505;28;20074;-44
2024/03/09 11:14:52;;;;;;;2.33;1.75;;;20.80;78.50;;;;;;5052270;28;20031;-44
2024/03/09 11:17:23;;;;;;;3.50;2.03;;;20.90;78.40;;;;;;5052468;28;20037;-45
2024/03/09 11:19:50;;;;;;;2.30;1.60;;;20.90;78.40;;;;;;5051797;28;20021;-44
2024/03/09 11:22:41;;;;;;;2.85;1.90;;;21.00;78.40;;;;;;5052009;28;20056;-43
2024/03/09 11:25:11;;;;;;;3.90;1.83;;;21.10;78.30;;;;;;5051685;28;20029;-44
2024/03/09 11:27:41;;;;;;;2.13;1.90;;;21.10;78.30;;;;;;5051901;28;20063;-44
2024/03/09 11:30:13;;;;;;;2.75;1.52;;;21.10;78.20;;;;;;5051770;28;20021;-43
2024/03/09 11:32:41;;;;;;;2.72;1.67;;;21.20;78.20;;;;;;5051883;28;20021;-44
2024/03/09 11:35:26;;;;;;;1.90;1.70;;;21.30;78.10;;;;;;5051733;28;20024;-44
2024/03/09 11:37:52;;;;;;;2.17;1.67;;;21.40;77.80;;;;;;5051634;28;20029;-44
2024/03/09 11:40:20;;;;;;;3.00;1.70;;;21.40;77.40;;;;;;5052633;28;20035;-45
2024/03/09 11:42:46;;;;;;;2.47;1.85;;;21.50;77.00;;;;;;5051599;28;20070;-44
2024/03/09 11:45:13;;;;;;;2.83;1.90;;;21.60;76.80;;;;;;5052273;28;20124;-45
2024/03/09 11:47:39;;;;;;;2.75;2.05;;;21.70;76.90;;;;;;5052000;28;20040;-44
2024/03/09 11:50:04;;;;;;;3.50;2.20;;;21.70;75.80;;;;;;5051354;28;20383;-45
2024/03/09 11:52:31;;;;;;;3.33;2.30;;;21.80;75.20;;;;;;5051392;28;20399;-45
2024/03/09 11:55:04;;;;;;;3.33;2.33;;;21.90;74.90;;;;;;5051872;28;20029;-45
2024/03/09 11:57:30;;;;;;;2.83;2.38;;;21.90;74.60;;;;;;5052683;28;20029;-45
2024/03/09 11:59:59;;;;;;;4.60;2.28;;;22.00;74.40;;;;;;5052257;28;20041;-45
2024/03/09 12:02:24;;;;;;;3.58;2.15;;;22.00;74.20;;;;;;5051349;28;20029;-45
2024/03/09 12:04:56;;;;;;;4.10;1.95;;;22.10;74.00;;;;;;5051118;28;20039;-42
2024/03/09 12:07:22;;;;;;;3.17;2.03;;;22.20;74.00;;;;;;5051822;28;20017;-45
2024/03/09 12:09:49;;;;;;;2.47;1.73;;;22.20;73.90;;;;;;5053811;28;20090;-45
2024/03/09 12:12:15;;;;;;;2.28;1.92;;;22.20;73.80;;;;;;5051028;28;20430;-45
2024/03/09 12:14:44;;;;;;;2.47;1.77;;;22.20;73.70;;;;;;5051074;28;20068;-44
2024/03/09 12:17:11;;;;;;;2.78;1.80;;;22.20;73.60;;;;;;5050657;28;20448;-44
2024/03/09 12:19:40;;;;;;;1.92;1.70;;;22.30;73.60;;;;;;5050774;28;20124;-44
2024/03/09 12:22:06;;;;;;;3.08;1.92;;;22.30;73.60;;;;;;5051772;28;20017;-45
2024/03/09 12:24:32;;;;;;;2.08;1.40;;;22.30;73.50;;;;;;5050887;28;20356;-45
2024/03/09 12:26:58;;;;;;;2.75;1.75;;;22.40;73.50;;;;;;5051433;28;20025;-45
2024/03/09 12:29:24;;;;;;;2.40;1.77;;;22.40;73.40;;;;;;5050601;28;20055;-45
2024/03/09 12:31:49;;;;;;;1.92;1.40;;;22.40;73.30;;;;;;5051561;28;20384;-46
2024/03/09 12:34:15;;;;;;;2.10;1.50;;;22.40;73.30;;;;;;5052402;28;20068;-45
2024/03/09 12:36:54;;;;;;;1.55;1.45;;;22.40;73.30;;;;;;5050824;28;20036;-45
2024/03/09 12:39:20;;;;;;;2.45;1.60;;;22.40;73.20;;;;;;5051868;28;20147;-46
2024/03/09 12:41:52;;;;;;;1.85;1.50;;;22.40;73.20;;;;;;5052055;28;20057;-44
2024/03/09 12:44:18;;;;;;;1.92;1.50;;;22.40;73.10;;;;;;5050398;28;20021;-45
2024/03/09 12:46:43;;;;;;;1.92;1.60;;;22.50;73.20;;;;;;5052966;28;20029;-45
2024/03/09 12:49:13;;;;;;;2.22;1.45;;;22.50;73.10;;;;;;5052578;28;20055;-45